Time;durP1;ratioP1;P1;durP2;ratioP2;P2;SDS_P1;SDS_P2;PMS_P1;PMS_P2;Temp;Humidity;BMP_temperature;BMP_pressure;BME280_temperature;BME280_humidity;BME280_pressure;Samples;Min_cycle;Max_cycle;Signal;HPM_P1;HPM_P2
2023/01/15 00:01:28;;;;;;;1999.90;999.90;;;31.30;92.00;;;;;;5050756;28;20035;-72
2023/01/15 00:03:57;;;;;;;1999.90;999.90;;;31.10;91.70;;;;;;5045756;28;20037;-74
2023/01/15 00:06:27;;;;;;;1999.90;999.90;;;31.20;92.00;;;;;;5040503;28;20491;-73
2023/01/15 00:08:55;;;;;;;1999.90;999.90;;;31.50;91.80;;;;;;5039930;28;20464;-73
2023/01/15 00:11:23;;;;;;;1999.90;999.90;;;31.70;91.40;;;;;;5041499;28;20025;-73
2023/01/15 00:13:51;;;;;;;1999.90;999.90;;;31.60;91.50;;;;;;5042865;28;20051;-75
2023/01/15 00:16:23;;;;;;;1999.90;999.90;;;31.70;91.20;;;;;;5032210;28;20544;-72
2023/01/15 00:18:53;;;;;;;1999.90;999.90;;;31.80;91.00;;;;;;5038853;28;20029;-74
2023/01/15 00:21:21;;;;;;;1999.90;999.90;;;31.70;90.10;;;;;;5042241;28;20033;-74
2023/01/15 00:29:27;;;;;;;1999.90;999.90;;;32.10;90.30;;;;;;5040883;28;20072;-74
2023/01/15 00:32:20;;;;;;;1999.90;999.90;;;32.00;90.00;;;;;;5042376;28;20939;-72
2023/01/15 00:34:48;;;;;;;1999.90;999.90;;;32.10;90.10;;;;;;5036582;28;20448;-72
2023/01/15 00:37:15;;;;;;;1999.90;999.90;;;32.30;90.00;;;;;;5045393;28;20456;-72
2023/01/15 00:39:43;;;;;;;1999.90;999.90;;;32.40;90.10;;;;;;5042659;28;20951;-74
2023/01/15 00:42:12;;;;;;;1999.90;999.90;;;32.70;89.80;;;;;;5066860;28;20025;-73
2023/01/15 00:44:39;;;;;;;1999.90;999.90;;;33.10;90.90;;;;;;5031437;28;20033;-73
2023/01/15 00:47:13;;;;;;;1999.90;999.90;;;33.30;89.80;;;;;;5033562;28;20057;-72
2023/01/15 00:49:41;;;;;;;1999.90;999.90;;;33.60;90.00;;;;;;5043224;28;20021;-74
2023/01/15 00:52:10;;;;;;;1999.90;999.90;;;34.00;89.70;;;;;;5045005;28;20037;-74
2023/01/15 00:54:39;;;;;;;1999.90;999.90;;;34.10;87.00;;;;;;5046658;28;20048;-74
2023/01/15 00:57:06;;;;;;;1999.90;999.90;;;34.00;86.30;;;;;;5026956;28;20033;-72
2023/01/15 00:59:34;;;;;;;1999.90;999.90;;;34.00;86.40;;;;;;5040550;28;20025;-74
2023/01/15 01:02:01;;;;;;;1999.90;999.90;;;33.70;86.30;;;;;;5043958;28;20027;-74
2023/01/15 01:04:28;;;;;;;1999.90;999.90;;;33.50;85.60;;;;;;5041674;28;20387;-73
2023/01/15 01:06:56;;;;;;;1999.90;999.90;;;33.50;86.70;;;;;;5043634;28;20029;-73
2023/01/15 01:09:23;;;;;;;1999.90;999.90;;;33.30;85.90;;;;;;5040538;28;20179;-73
2023/01/15 01:11:51;;;;;;;1999.90;999.90;;;33.30;87.80;;;;;;5041881;28;20013;-74
2023/01/15 01:14:18;;;;;;;1999.90;999.90;;;33.70;86.80;;;;;;5043095;28;20095;-72
2023/01/15 01:16:45;;;;;;;1999.90;999.90;;;34.20;86.50;;;;;;5041347;28;20502;-72
2023/01/15 01:19:17;;;;;;;1999.90;999.90;;;34.40;86.00;;;;;;5039192;28;20056;-73
2023/01/15 01:21:45;;;;;;;1999.90;999.90;;;34.40;85.90;;;;;;5041899;28;20036;-73
2023/01/15 01:24:16;;;;;;;1999.90;999.90;;;34.60;85.40;;;;;;5039459;28;20037;-73
2023/01/15 01:26:44;;;;;;;1999.90;999.90;;;34.80;85.30;;;;;;5040432;28;20112;-75
2023/01/15 01:29:14;;;;;;;1999.90;999.90;;;34.80;84.80;;;;;;5040065;28;20044;-73
2023/01/15 01:31:42;;;;;;;1999.90;999.90;;;35.00;84.70;;;;;;5040502;28;20122;-73
2023/01/15 01:34:11;;;;;;;1999.90;999.90;;;35.20;84.60;;;;;;5039828;28;20045;-73
2023/01/15 01:36:41;;;;;;;1999.90;999.90;;;35.10;83.20;;;;;;5042378;28;20032;-71
2023/01/15 01:39:13;;;;;;;1999.90;999.90;;;34.90;84.00;;;;;;5042176;28;20056;-73
2023/01/15 01:41:41;;;;;;;1999.90;999.90;;;35.10;84.60;;;;;;5042481;28;20040;-72
2023/01/15 01:44:36;;;;;;;1999.90;999.90;;;35.50;85.40;;;;;;5033335;28;20104;-74
2023/01/15 01:47:21;;;;;;;1999.90;999.90;;;35.80;86.40;;;;;;5039362;28;20025;-71
2023/01/15 01:49:54;;;;;;;1999.90;999.90;;;36.20;84.00;;;;;;5041381;28;20036;-74
2023/01/15 01:52:29;;;;;;;1999.90;999.90;;;36.40;83.50;;;;;;5041470;28;20033;-72
2023/01/15 01:54:57;;;;;;;1999.90;999.90;;;36.50;82.50;;;;;;5041327;28;20049;-75
2023/01/15 01:57:25;;;;;;;1999.90;999.90;;;36.30;81.10;;;;;;5041511;28;20483;-73
2023/01/15 01:59:54;;;;;;;1999.90;999.90;;;36.10;81.60;;;;;;5038263;28;20036;-72
2023/01/15 02:02:23;;;;;;;1999.90;999.90;;;35.80;82.10;;;;;;5043155;28;20029;-73
2023/01/15 02:04:51;;;;;;;1999.90;999.90;;;35.80;82.00;;;;;;5042368;28;20029;-72
2023/01/15 02:07:22;;;;;;;1999.90;999.90;;;35.80;81.90;;;;;;5039382;28;20521;-72
2023/01/15 02:09:49;;;;;;;1999.90;999.90;;;36.20;85.50;;;;;;5040876;28;20048;-73
2023/01/15 02:12:31;;;;;;;1999.90;999.90;;;36.50;82.90;;;;;;5038547;28;20063;-72
2023/01/15 02:15:16;;;;;;;1999.90;999.90;;;36.90;85.90;;;;;;5041918;28;20068;-73
2023/01/15 02:17:43;;;;;;;1999.90;999.90;;;37.20;80.60;;;;;;5038928;28;20021;-73
2023/01/15 02:20:31;;;;;;;1999.90;999.90;;;37.10;79.90;;;;;;5042822;28;20039;-73
2023/01/15 02:23:33;;;;;;;1999.90;999.90;;;37.20;81.60;;;;;;5045035;28;20108;-74
2023/01/15 02:26:31;;;;;;;1999.90;999.90;;;37.20;79.20;;;;;;5049994;28;20382;-74
2023/01/15 02:29:00;;;;;;;1999.90;999.90;;;37.20;80.20;;;;;;5044715;28;20019;-75
2023/01/15 02:31:40;;;;;;;1999.90;999.90;;;37.20;79.90;;;;;;5046197;28;20128;-75
2023/01/15 02:34:07;;;;;;;1999.90;999.90;;;37.30;81.80;;;;;;5048480;28;20064;-75
2023/01/15 02:36:39;;;;;;;1999.90;999.90;;;37.50;80.70;;;;;;5047932;28;20020;-72
2023/01/15 02:39:10;;;;;;;1999.90;999.90;;;37.60;78.50;;;;;;5047853;28;20369;-73
2023/01/15 02:41:46;;;;;;;1999.90;999.90;;;37.50;79.50;;;;;;5060403;28;20025;-75
2023/01/15 02:44:17;;;;;;;1999.90;999.90;;;37.60;82.00;;;;;;5051693;28;20036;-73
2023/01/15 02:46:46;;;;;;;1999.90;999.90;;;38.00;82.20;;;;;;5063982;28;20017;-72
2023/01/15 02:49:20;;;;;;;1999.90;999.90;;;38.00;78.40;;;;;;5060900;28;20036;-73
2023/01/15 02:52:28;;;;;;;1999.90;999.90;;;38.00;78.40;;;;;;5048826;28;20035;-75
2023/01/15 02:55:08;;;;;;;1999.90;999.90;;;38.00;76.50;;;;;;4983566;28;20540;-74
2023/01/15 02:57:38;;;;;;;1999.90;999.90;;;37.40;76.70;;;;;;5050202;28;20028;-76
2023/01/15 03:00:11;;;;;;;1999.90;999.90;;;37.00;77.80;;;;;;5048606;28;20045;-75
2023/01/15 03:02:48;;;;;;;1999.90;999.90;;;36.60;78.00;;;;;;5046225;28;20036;-74
2023/01/15 03:05:33;;;;;;;1999.90;999.90;;;36.50;77.90;;;;;;5055586;28;20461;-74
2023/01/15 03:08:04;;;;;;;1999.90;999.90;;;36.40;78.30;;;;;;5050470;28;20087;-73
2023/01/15 03:10:34;;;;;;;1999.90;999.90;;;36.60;79.00;;;;;;5058207;28;20036;-73
2023/01/15 03:13:04;;;;;;;1999.90;999.90;;;36.80;78.30;;;;;;5052259;28;20032;-74
2023/01/15 03:18:26;;;;;;;1999.90;999.90;;;37.30;78.80;;;;;;5053527;28;20044;-73
2023/01/15 03:20:59;;;;;;;1999.90;999.90;;;37.80;79.40;;;;;;5058039;28;20570;-74
2023/01/15 03:23:36;;;;;;;1999.90;999.90;;;38.10;77.40;;;;;;5057900;28;20115;-73
2023/01/15 03:26:03;;;;;;;1999.90;999.90;;;38.40;77.80;;;;;;5056049;28;20040;-74
2023/01/15 03:28:35;;;;;;;1999.90;999.90;;;38.60;78.60;;;;;;5056003;28;20021;-72
2023/01/15 03:31:02;;;;;;;1999.90;999.90;;;38.80;78.80;;;;;;5059932;28;20029;-70
2023/01/15 03:33:31;;;;;;;1999.90;999.90;;;38.70;78.30;;;;;;5055808;28;20616;-76
2023/01/15 03:36:00;;;;;;;1999.90;999.90;;;38.70;80.00;;;;;;5057941;28;20495;-72
2023/01/15 03:38:39;;;;;;;1999.90;999.90;;;38.90;79.00;;;;;;5055583;28;20081;-71
2023/01/15 03:41:48;;;;;;;1999.90;999.90;;;39.20;78.60;;;;;;5055328;28;20021;-74
2023/01/15 03:44:28;;;;;;;1999.90;999.90;;;39.30;79.40;;;;;;5041266;28;20469;-72
2023/01/15 03:47:14;;;;;;;1999.90;999.90;;;39.40;77.70;;;;;;5051935;28;20032;-73
2023/01/15 03:49:50;;;;;;;1999.90;999.90;;;39.50;76.90;;;;;;5054935;28;20039;-74
2023/01/15 03:52:25;;;;;;;1999.90;999.90;;;39.50;76.60;;;;;;5056162;28;20044;-71
2023/01/15 03:55:13;;;;;;;1999.90;999.90;;;39.40;77.50;;;;;;5051476;28;20040;-72
2023/01/15 03:57:56;;;;;;;1999.90;999.90;;;39.40;75.30;;;;;;5042822;28;20040;-71
2023/01/15 04:00:40;;;;;;;1999.90;999.90;;;39.30;74.90;;;;;;5051440;28;20467;-72
2023/01/15 04:03:10;;;;;;;1999.90;999.90;;;39.40;77.20;;;;;;5054285;28;20040;-73
2023/01/15 04:05:39;;;;;;;1999.90;999.90;;;39.60;76.00;;;;;;5068387;28;20040;-73
2023/01/15 04:08:08;;;;;;;1999.90;999.90;;;39.70;75.10;;;;;;5059824;28;20025;-72
2023/01/15 04:10:35;;;;;;;1999.90;999.90;;;39.50;74.90;;;;;;5049762;28;20035;-72
2023/01/15 04:13:02;;;;;;;1999.90;999.90;;;39.30;73.90;;;;;;5048467;28;20044;-73
2023/01/15 04:15:30;;;;;;;1999.90;999.90;;;39.10;75.70;;;;;;5053467;28;20111;-73
2023/01/15 04:17:57;;;;;;;1999.90;999.90;;;39.00;75.10;;;;;;5052623;28;20045;-72
2023/01/15 04:20:25;;;;;;;1999.90;999.90;;;38.70;75.10;;;;;;5052328;28;20475;-75
2023/01/15 04:22:52;;;;;;;1999.90;999.90;;;38.70;74.10;;;;;;5049029;28;20036;-73
2023/01/15 04:25:19;;;;;;;1999.90;999.90;;;38.70;75.40;;;;;;5053840;28;20105;-72
2023/01/15 04:27:48;;;;;;;1999.90;999.90;;;38.90;76.90;;;;;;5049812;28;20475;-74
2023/01/15 04:30:16;;;;;;;1999.90;999.90;;;38.90;77.60;;;;;;5056017;28;20116;-73
2023/01/15 04:32:43;;;;;;;1999.90;999.90;;;39.10;78.10;;;;;;5053913;28;20049;-73
2023/01/15 04:35:11;;;;;;;1999.90;999.90;;;39.10;78.80;;;;;;5050594;28;20047;-72
2023/01/15 04:37:38;;;;;;;1999.90;999.90;;;39.10;77.90;;;;;;5049472;28;20033;-72
2023/01/15 04:40:06;;;;;;;1999.90;999.90;;;39.00;76.80;;;;;;5052997;28;20431;-73
2023/01/15 04:45:19;;;;;;;1999.90;999.90;;;38.70;78.30;;;;;;5048030;28;20875;-72
2023/01/15 04:47:46;;;;;;;1999.90;999.90;;;38.60;79.10;;;;;;5050986;28;20041;-74
2023/01/15 04:50:13;;;;;;;1999.90;999.90;;;38.40;79.60;;;;;;5060507;28;20487;-71
2023/01/15 04:52:41;;;;;;;1999.90;999.90;;;38.40;80.60;;;;;;5056287;28;20035;-73
2023/01/15 04:55:08;;;;;;;1999.90;999.90;;;38.40;80.20;;;;;;5056861;28;20039;-73
2023/01/15 04:57:38;;;;;;;1999.90;999.90;;;38.00;78.50;;;;;;5059666;28;20021;-73
2023/01/15 05:00:06;;;;;;;1999.90;999.90;;;37.90;80.30;;;;;;5049710;28;20035;-73
2023/01/15 05:02:33;;;;;;;1999.90;999.90;;;37.90;79.60;;;;;;5056414;28;20028;-73
2023/01/15 05:05:01;;;;;;;1999.90;999.90;;;37.80;81.60;;;;;;5056977;28;20413;-74
2023/01/15 05:07:28;;;;;;;1999.90;999.90;;;37.70;79.80;;;;;;5052928;28;20025;-75
2023/01/15 05:09:55;;;;;;;1999.90;999.90;;;37.50;80.30;;;;;;5056318;28;20025;-73
2023/01/15 05:12:23;;;;;;;1999.90;999.90;;;37.30;80.20;;;;;;5057111;28;20032;-73
2023/01/15 05:14:50;;;;;;;1999.90;999.90;;;37.20;81.40;;;;;;5053888;28;20025;-72
2023/01/15 05:17:17;;;;;;;1999.90;999.90;;;37.20;80.60;;;;;;5057286;28;20124;-73
2023/01/15 05:19:45;;;;;;;1999.90;999.90;;;37.00;82.50;;;;;;5050969;28;21926;-74
2023/01/15 05:22:12;;;;;;;1999.90;999.90;;;37.00;81.60;;;;;;5059208;28;20134;-74
2023/01/15 05:24:40;;;;;;;1999.90;999.90;;;37.10;82.10;;;;;;5050058;28;20116;-74
2023/01/15 05:27:07;;;;;;;1999.90;999.90;;;37.10;82.40;;;;;;5057478;28;20149;-73
2023/01/15 05:29:35;;;;;;;1999.90;999.90;;;37.00;81.80;;;;;;5050600;28;20060;-75
2023/01/15 05:32:02;;;;;;;1999.90;999.90;;;37.00;81.80;;;;;;5055667;28;20477;-74
2023/01/15 05:34:29;;;;;;;1999.90;999.90;;;36.90;81.20;;;;;;5052189;28;20438;-77
2023/01/15 05:36:57;;;;;;;1999.90;999.90;;;36.70;81.60;;;;;;5056227;28;20113;-74
2023/01/15 05:39:24;;;;;;;1999.90;999.90;;;36.60;82.10;;;;;;5050551;28;20040;-76
2023/01/15 05:41:52;;;;;;;1999.90;999.90;;;36.60;81.80;;;;;;5053748;28;20029;-75
2023/01/15 05:44:26;;;;;;;1999.90;999.90;;;36.60;81.80;;;;;;5052369;28;20547;-75
2023/01/15 05:46:57;;;;;;;1999.90;999.90;;;36.40;81.70;;;;;;5049736;28;20033;-74
2023/01/15 05:49:27;;;;;;;1999.90;999.90;;;36.00;81.90;;;;;;5044389;28;20023;-76
2023/01/15 05:51:54;;;;;;;1999.90;999.90;;;36.00;82.20;;;;;;5050951;28;20065;-76
2023/01/15 05:54:24;;;;;;;1999.90;999.90;;;36.00;82.60;;;;;;5055604;28;20028;-76
2023/01/15 05:56:52;;;;;;;1999.90;999.90;;;36.10;81.90;;;;;;5048513;28;20033;-77
2023/01/15 05:59:22;;;;;;;1999.90;999.90;;;36.00;81.50;;;;;;5046509;28;20032;-75
2023/01/15 06:01:50;;;;;;;1999.90;999.90;;;35.80;82.30;;;;;;5045617;28;20037;-73
2023/01/15 06:04:19;;;;;;;1999.90;999.90;;;35.80;82.90;;;;;;5037469;28;20076;-72
2023/01/15 06:06:48;;;;;;;1999.90;999.90;;;35.90;82.70;;;;;;5043761;28;20461;-72
2023/01/15 06:09:15;;;;;;;1999.90;999.90;;;35.80;82.20;;;;;;5041493;28;20471;-71
2023/01/15 06:11:43;;;;;;;1999.90;999.90;;;35.50;82.10;;;;;;5044180;28;22351;-72
2023/01/15 06:14:11;;;;;;;1999.90;999.90;;;35.40;82.10;;;;;;5040995;28;20033;-73
2023/01/15 06:16:40;;;;;;;1999.90;999.90;;;35.20;83.60;;;;;;5043293;28;20471;-71
2023/01/15 06:19:09;;;;;;;1999.90;999.90;;;35.10;82.70;;;;;;5041234;28;20036;-72
2023/01/15 06:21:37;;;;;;;1999.90;999.90;;;35.20;83.40;;;;;;5042107;28;20021;-72
2023/01/15 06:24:04;;;;;;;1999.90;999.90;;;35.20;83.00;;;;;;5041969;28;20424;-72
2023/01/15 06:26:32;;;;;;;1999.90;999.90;;;35.10;82.60;;;;;;5047740;28;20021;-73
2023/01/15 06:28:59;;;;;;;1999.90;999.90;;;35.10;82.90;;;;;;5053404;28;20029;-72
2023/01/15 06:31:27;;;;;;;1999.90;999.90;;;35.00;83.10;;;;;;5054709;28;20061;-72
2023/01/15 06:33:54;;;;;;;1999.90;999.90;;;34.90;83.00;;;;;;5061239;28;20399;-72
2023/01/15 06:36:25;;;;;;;1999.90;999.90;;;34.80;83.10;;;;;;5050154;28;20095;-72
2023/01/15 06:38:53;;;;;;;1999.90;999.90;;;34.80;83.40;;;;;;5050856;28;20033;-70
2023/01/15 06:47:21;;;;;;;1999.90;999.90;;;34.40;84.00;;;;;;5050466;28;20121;-71
2023/01/15 06:49:54;;;;;;;1999.90;999.90;;;34.10;84.60;;;;;;5048015;28;20032;-72
2023/01/15 06:52:23;;;;;;;1999.90;999.90;;;33.90;85.30;;;;;;5054758;28;20396;-71
2023/01/15 06:54:51;;;;;;;1999.90;999.90;;;33.90;85.30;;;;;;5053184;28;20505;-70
2023/01/15 06:57:18;;;;;;;1999.90;999.90;;;33.90;85.40;;;;;;5054295;28;20549;-71
2023/01/15 06:59:47;;;;;;;1999.90;999.90;;;33.80;85.40;;;;;;5052291;28;20032;-71
2023/01/15 07:02:14;;;;;;;1999.90;999.90;;;33.60;85.50;;;;;;5053072;28;20025;-71
2023/01/15 07:04:42;;;;;;;1999.90;999.90;;;33.50;85.90;;;;;;5048924;28;20437;-71
2023/01/15 07:07:09;;;;;;;1999.90;999.90;;;33.40;86.20;;;;;;5047006;28;20025;-72
2023/01/15 07:09:37;;;;;;;1999.90;999.90;;;33.40;86.30;;;;;;5052227;28;20025;-70
2023/01/15 07:12:04;;;;;;;1999.90;999.90;;;33.30;86.50;;;;;;5053528;28;20510;-70
2023/01/15 07:14:32;;;;;;;1999.90;999.90;;;33.20;86.40;;;;;;5056537;28;20040;-70
2023/01/15 07:17:00;;;;;;;1999.90;999.90;;;33.10;86.10;;;;;;5061339;28;20024;-71
2023/01/15 07:19:27;;;;;;;1999.90;999.90;;;32.80;86.20;;;;;;5053008;28;20102;-73
2023/01/15 07:21:55;;;;;;;1999.90;999.90;;;32.60;86.50;;;;;;5057843;28;20748;-71
2023/01/15 07:24:22;;;;;;;1999.90;999.90;;;32.40;87.10;;;;;;5054528;28;20040;-71
2023/01/15 07:26:50;;;;;;;1999.90;999.90;;;32.20;87.60;;;;;;5053801;28;20032;-72
2023/01/15 07:29:17;;;;;;;1999.90;999.90;;;32.00;87.80;;;;;;5051867;28;20495;-70
2023/01/15 07:31:44;;;;;;;1999.90;999.90;;;31.80;87.70;;;;;;5054186;28;20076;-70
2023/01/15 07:34:12;;;;;;;1999.90;999.90;;;31.70;88.20;;;;;;5057705;28;20025;-71
2023/01/15 07:36:40;;;;;;;1999.90;999.90;;;31.50;88.30;;;;;;5051415;28;20083;-72
2023/01/15 07:39:09;;;;;;;1999.90;999.90;;;31.30;88.50;;;;;;5054512;28;20029;-72
2023/01/15 07:50:23;;;;;;;1999.90;999.90;;;30.80;90.10;;;;;;5050354;28;20031;-70
2023/01/15 07:52:51;;;;;;;1999.90;999.90;;;30.70;90.40;;;;;;5049293;28;20046;-72
2023/01/15 07:55:18;;;;;;;1999.90;999.90;;;30.60;90.40;;;;;;5047177;28;20055;-72
2023/01/15 07:57:46;;;;;;;1999.90;999.90;;;30.50;90.60;;;;;;5046088;28;20024;-72
2023/01/15 08:00:19;;;;;;;1999.90;999.90;;;30.40;90.90;;;;;;5053815;28;20035;-72
2023/01/15 08:02:49;;;;;;;1999.90;999.90;;;30.30;90.90;;;;;;5058413;28;20039;-72
2023/01/15 08:05:17;;;;;;;1999.90;999.90;;;30.20;91.20;;;;;;5055466;28;20041;-71
2023/01/15 08:07:45;;;;;;;1999.90;999.90;;;30.10;91.40;;;;;;5052550;28;20059;-72
2023/01/15 08:10:14;;;;;;;1999.90;999.90;;;30.10;91.60;;;;;;5054311;28;20041;-72
2023/01/15 08:15:29;;;;;;;1999.90;999.90;;;29.90;91.90;;;;;;5061602;28;20096;-72
2023/01/15 08:17:57;;;;;;;1999.90;999.90;;;29.80;91.90;;;;;;5054305;28;20044;-71
2023/01/15 08:20:25;;;;;;;1999.90;999.90;;;29.60;92.10;;;;;;5050312;28;20098;-71
2023/01/15 08:22:53;;;;;;;1999.90;999.90;;;29.50;92.20;;;;;;5054616;28;20444;-70
2023/01/15 08:25:23;;;;;;;1999.90;999.90;;;29.50;92.40;;;;;;5061807;28;20112;-69
2023/01/15 08:27:51;;;;;;;1999.90;999.90;;;29.30;92.50;;;;;;5053722;28;20183;-72
2023/01/15 08:30:22;;;;;;;1999.90;999.90;;;29.30;92.80;;;;;;5056366;28;20120;-71
2023/01/15 08:32:50;;;;;;;1999.90;999.90;;;29.30;92.70;;;;;;5056030;28;20483;-72
2023/01/15 08:35:17;;;;;;;1999.90;999.90;;;29.30;92.70;;;;;;5060587;28;20036;-72
2023/01/15 08:37:45;;;;;;;1999.90;999.90;;;29.20;92.50;;;;;;5053302;28;20027;-73
2023/01/15 08:40:13;;;;;;;1999.90;999.90;;;29.20;92.90;;;;;;5060101;28;20045;-70
2023/01/15 08:42:41;;;;;;;1999.90;999.90;;;29.20;93.10;;;;;;5055258;28;20029;-71
2023/01/15 08:45:09;;;;;;;1999.90;999.90;;;29.00;93.40;;;;;;5058162;28;20079;-71
2023/01/15 08:47:37;;;;;;;1999.90;999.90;;;28.90;93.70;;;;;;5054441;28;20017;-71
2023/01/15 08:50:07;;;;;;;1999.90;999.90;;;28.80;94.30;;;;;;5056776;28;20494;-71
2023/01/15 08:52:35;;;;;;;1999.90;999.90;;;28.80;94.90;;;;;;5058069;28;20033;-72
2023/01/15 08:55:02;;;;;;;1999.90;999.90;;;28.70;95.20;;;;;;5058080;28;20388;-70
2023/01/15 08:57:29;;;;;;;1999.90;999.90;;;28.60;95.90;;;;;;5056339;28;20033;-71
2023/01/15 08:59:56;;;;;;;1999.90;999.90;;;28.50;96.30;;;;;;5056469;28;20037;-72
2023/01/15 09:02:24;;;;;;;1999.90;999.90;;;28.40;96.40;;;;;;5054218;28;20033;-72
2023/01/15 09:04:51;;;;;;;1999.90;999.90;;;28.30;97.30;;;;;;5052904;28;20135;-73
2023/01/15 09:07:19;;;;;;;1999.90;999.90;;;28.20;97.30;;;;;;5051609;28;20033;-73
2023/01/15 09:09:46;;;;;;;1999.90;999.90;;;28.10;97.50;;;;;;5046603;28;20135;-73
2023/01/15 09:12:14;;;;;;;1999.90;999.90;;;28.00;98.20;;;;;;5052557;28;20395;-73
2023/01/15 09:14:41;;;;;;;1999.90;999.90;;;27.80;98.90;;;;;;5050826;28;20037;-72
2023/01/15 09:17:09;;;;;;;1999.90;999.90;;;27.70;99.60;;;;;;5050193;28;20475;-71
2023/01/15 09:19:36;;;;;;;1999.90;999.90;;;27.60;99.90;;;;;;5050975;28;20486;-74
2023/01/15 09:22:04;;;;;;;1999.90;999.90;;;27.40;99.90;;;;;;5050664;28;20423;-71
2023/01/15 09:24:31;;;;;;;1999.90;999.90;;;27.30;99.90;;;;;;5051393;28;20060;-73
2023/01/15 09:26:58;;;;;;;1999.90;999.90;;;27.10;99.90;;;;;;5052165;28;20044;-74
2023/01/15 09:29:26;;;;;;;1999.90;999.90;;;26.90;99.90;;;;;;5055816;28;20029;-75
2023/01/15 09:31:53;;;;;;;1999.90;999.90;;;26.60;99.90;;;;;;5049746;28;20394;-75
2023/01/15 09:34:21;;;;;;;1999.90;999.90;;;26.40;99.90;;;;;;5050314;28;20120;-72
2023/01/15 09:36:49;;;;;;;1999.90;999.90;;;26.20;99.90;;;;;;5043870;28;20025;-72
2023/01/15 09:39:17;;;;;;;1999.90;999.90;;;26.00;99.90;;;;;;5051770;28;20036;-73
2023/01/15 09:42:09;;;;;;;1999.90;999.90;;;25.90;99.90;;;;;;5051776;28;20499;-73
2023/01/15 09:44:46;;;;;;;1999.90;999.90;;;25.70;99.90;;;;;;5050720;28;20063;-73
2023/01/15 09:47:18;;;;;;;1999.90;999.90;;;25.60;99.90;;;;;;5046484;28;20048;-74
2023/01/15 09:49:54;;;;;;;1999.90;999.90;;;25.60;99.90;;;;;;5048920;28;20402;-77
2023/01/15 09:52:25;;;;;;;1999.90;999.90;;;25.50;99.90;;;;;;5048250;28;20564;-74
2023/01/15 09:55:11;;;;;;;1999.90;999.90;;;25.30;99.90;;;;;;5047172;28;20044;-73
2023/01/15 09:57:40;;;;;;;1999.90;999.90;;;25.20;99.90;;;;;;5055904;28;20498;-75
2023/01/15 10:00:15;;;;;;;1999.90;999.90;;;25.00;99.90;;;;;;5054517;28;20183;-77
2023/01/15 10:02:50;;;;;;;1999.90;999.90;;;24.90;99.90;;;;;;5060154;28;20029;-75
2023/01/15 10:05:23;;;;;;;1999.90;999.90;;;24.80;99.90;;;;;;5061998;28;20083;-76
2023/01/15 10:08:23;;;;;;;1999.90;999.90;;;24.70;99.90;;;;;;5055954;28;20017;-74
2023/01/15 10:11:17;;;;;;;1999.90;999.90;;;24.60;99.90;;;;;;5032481;28;20040;-74
2023/01/15 10:14:05;;;;;;;1999.90;999.90;;;24.50;99.90;;;;;;5040695;28;20037;-74
2023/01/15 10:16:33;;;;;;;1999.90;999.90;;;24.50;99.90;;;;;;5062228;28;20391;-74
2023/01/15 10:19:02;;;;;;;1999.90;999.90;;;24.50;99.90;;;;;;5052643;28;20431;-76
2023/01/15 10:21:55;;;;;;;1999.90;999.90;;;24.40;99.90;;;;;;5055856;28;20024;-74
2023/01/15 10:24:39;;;;;;;1999.90;999.90;;;24.40;99.90;;;;;;5055699;28;20506;-76
2023/01/15 10:27:20;;;;;;;1999.90;999.90;;;24.40;99.90;;;;;;5054697;28;20103;-74
2023/01/15 10:30:10;;;;;;;1999.90;999.90;;;24.50;99.90;;;;;;5055547;28;20112;-75
2023/01/15 10:32:48;;;;;;;1999.90;999.90;;;24.40;99.90;;;;;;5052587;28;20470;-73
2023/01/15 10:35:27;;;;;;;1999.90;999.90;;;24.40;99.90;;;;;;5058043;28;20092;-74
2023/01/15 10:38:25;;;;;;;1999.90;999.90;;;24.40;99.90;;;;;;5050675;28;20502;-73
2023/01/15 10:41:05;;;;;;;1999.90;999.90;;;24.40;99.90;;;;;;5055761;28;20025;-75
2023/01/15 10:44:01;;;;;;;1999.90;999.90;;;24.30;99.90;;;;;;5058102;28;20067;-75
2023/01/15 10:46:36;;;;;;;1999.90;999.90;;;24.30;99.90;;;;;;5054922;28;20040;-75
2023/01/15 10:49:05;;;;;;;;;;;24.30;99.90;;;;;;5055219;28;20033;-73
2023/01/15 10:51:42;;;;;;;1999.90;999.90;;;24.20;99.90;;;;;;5059825;28;20373;-73
2023/01/15 10:54:21;;;;;;;1999.90;999.90;;;24.20;99.90;;;;;;5055979;28;20039;-74
2023/01/15 10:57:00;;;;;;;1999.90;999.90;;;24.20;99.90;;;;;;5058715;28;20073;-73
2023/01/15 10:59:36;;;;;;;1999.90;999.90;;;24.20;99.90;;;;;;5055592;28;20463;-75
2023/01/15 11:02:21;;;;;;;1999.90;999.90;;;24.20;99.90;;;;;;5053764;28;20025;-74
2023/01/15 11:04:48;;;;;;;1999.90;999.90;;;24.10;99.90;;;;;;5055182;28;20124;-73
2023/01/15 11:07:16;;;;;;;1999.90;999.90;;;24.10;99.90;;;;;;5054665;28;20648;-74
2023/01/15 11:09:44;;;;;;;1999.90;999.90;;;24.00;99.90;;;;;;5049048;28;21105;-75
2023/01/15 11:20:42;;;;;;;1999.90;999.90;;;23.80;99.90;;;;;;5055862;28;20039;-74
2023/01/15 11:23:15;;;;;;;1999.90;999.90;;;23.80;99.90;;;;;;5050715;28;20116;-75
2023/01/15 11:25:56;;;;;;;1999.90;999.90;;;23.90;99.90;;;;;;5049398;28;20510;-74
2023/01/15 11:28:45;;;;;;;1999.90;999.90;;;23.90;99.90;;;;;;5049551;28;20059;-73
2023/01/15 11:31:14;;;;;;;1999.90;999.90;;;23.90;99.90;;;;;;5052359;28;20133;-73
2023/01/15 11:33:55;;;;;;;1999.90;999.90;;;23.90;99.90;;;;;;5048394;28;20020;-72
2023/01/15 11:36:25;;;;;;;1999.90;999.90;;;24.00;99.90;;;;;;5056522;28;20039;-73
2023/01/15 11:38:53;;;;;;;1999.90;999.90;;;23.90;99.90;;;;;;5050649;28;21092;-72
2023/01/15 11:52:56;;;;;;;1999.90;999.90;;;23.90;99.90;;;;;;5051526;28;20051;-71
2023/01/15 11:55:26;;;;;;;1999.90;999.90;;;23.90;99.90;;;;;;5055418;28;20128;-72
2023/01/15 11:57:57;;;;;;;1999.90;999.90;;;23.90;99.90;;;;;;5051889;28;20025;-74
2023/01/15 12:00:31;;;;;;;1999.90;999.90;;;23.80;99.90;;;;;;5057900;28;20037;-73
2023/01/15 12:03:06;;;;;;;1999.90;999.90;;;23.80;99.90;;;;;;5058543;28;20017;-73
2023/01/15 12:05:36;;;;;;;1999.90;999.90;;;23.80;99.90;;;;;;5060223;28;20072;-73
2023/01/15 12:08:33;;;;;;;1999.90;999.90;;;23.80;99.90;;;;;;5053639;28;20037;-73
2023/01/15 12:11:18;;;;;;;1999.90;999.90;;;23.80;99.90;;;;;;5043950;28;20430;-73
2023/01/15 12:13:51;;;;;;;1999.90;999.90;;;23.80;99.90;;;;;;5054064;28;20029;-74
2023/01/15 12:16:40;;;;;;;1999.90;999.90;;;23.70;99.90;;;;;;5055379;28;21802;-74
2023/01/15 12:19:39;;;;;;;1999.90;999.90;;;23.70;99.90;;;;;;5058992;28;20031;-73
2023/01/15 12:22:24;;;;;;;1999.90;999.90;;;23.70;99.90;;;;;;5061299;28;20033;-73
2023/01/15 12:25:25;;;;;;;1999.90;999.90;;;23.70;99.90;;;;;;5055018;28;20099;-73
2023/01/15 12:28:12;;;;;;;1999.90;999.90;;;23.60;99.90;;;;;;5021659;28;20047;-73
2023/01/15 12:31:18;;;;;;;1999.90;999.90;;;23.60;99.90;;;;;;5055506;28;20020;-73
2023/01/15 12:34:04;;;;;;;1999.90;999.90;;;23.60;99.90;;;;;;5059208;28;20204;-72
2023/01/15 12:36:54;;;;;;;1999.90;999.90;;;23.50;99.90;;;;;;5055882;28;20353;-71
2023/01/15 12:40:05;;;;;;;1999.90;999.90;;;23.60;99.90;;;;;;5050768;28;20044;-73
2023/01/15 12:45:29;;;;;;;1999.90;999.90;;;23.50;99.90;;;;;;5057407;28;20051;-72
2023/01/15 12:48:17;;;;;;;1999.90;999.90;;;23.50;99.90;;;;;;5050664;28;20029;-73
2023/01/15 12:50:57;;;;;;;1999.90;999.90;;;23.40;99.90;;;;;;5057404;28;20483;-71
2023/01/15 12:53:31;;;;;;;1999.90;999.90;;;23.40;99.90;;;;;;5058234;28;20082;-73
2023/01/15 12:56:15;;;;;;;1999.90;999.90;;;23.40;99.90;;;;;;5062304;28;20033;-72
2023/01/15 12:59:07;;;;;;;1999.90;999.90;;;23.40;99.90;;;;;;5053737;28;20032;-73
2023/01/15 13:02:03;;;;;;;1999.90;999.90;;;23.40;99.90;;;;;;5059515;28;20551;-75
2023/01/15 13:05:23;;;;;;;1999.90;999.90;;;23.50;99.90;;;;;;5055153;28;20033;-73
2023/01/15 13:08:19;;;;;;;1999.90;999.90;;;23.50;99.90;;;;;;4985650;28;20030;-73
2023/01/15 13:10:50;;;;;;;1999.90;999.90;;;23.50;99.90;;;;;;4988897;28;20022;-72
2023/01/15 13:13:29;;;;;;;1999.90;999.90;;;23.50;99.90;;;;;;5037408;28;20458;-73
2023/01/15 13:16:11;;;;;;;1999.90;999.90;;;23.40;99.90;;;;;;5055445;28;20021;-73
2023/01/15 13:19:01;;;;;;;1999.90;999.90;;;23.30;99.90;;;;;;5049887;28;20531;-71